Time;durP1;ratioP1;P1;durP2;ratioP2;P2;SDS_P1;SDS_P2;PMS_P1;PMS_P2;Temp;Humidity;BMP_temperature;BMP_pressure;BME280_temperature;BME280_humidity;BME280_pressure;Samples;Min_cycle;Max_cycle;Signal;HPM_P1;HPM_P2
2024/01/28 06:01:36;;;;;;;37.67;15.57;;;;;;;;;;5421161;23;20503;-75
2024/01/28 06:04:02;;;;;;;32.97;16.00;;;;;;;;;;4953788;29;20776;-76
2024/01/28 06:06:28;;;;;;;33.33;15.97;;;;;;;;;;4956084;29;20396;-76
2024/01/28 06:08:54;;;;;;;36.23;15.83;;;;;;;;;;4953572;29;20417;-76
2024/01/28 06:11:20;;;;;;;30.93;15.40;;;;;;;;;;4952459;28;20439;-76
2024/01/28 06:13:46;;;;;;;33.83;14.53;;;;;;;;;;4952846;29;20977;-75
2024/01/28 06:16:12;;;;;;;26.17;13.37;;;;;;;;;;4953881;29;20489;-75
2024/01/28 06:18:43;;;;;;;26.20;13.93;;;;;;;;;;4953640;29;20404;-75
2024/01/28 06:21:10;;;;;;;25.63;13.63;;;;;;;;;;4961361;28;20439;-75
2024/01/28 06:23:35;;;;;;;36.53;15.40;;;;;;;;;;4964643;29;20512;-76
2024/01/28 06:26:01;;;;;;;28.87;15.50;;;;;;;;;;4964542;29;20417;-75
2024/01/28 06:28:27;;;;;;;34.80;16.50;;;;;;;;;;4955220;29;20449;-75
2024/01/28 06:30:53;;;;;;;29.30;16.10;;;;;;;;;;4953878;28;20440;-76
2024/01/28 06:33:19;;;;;;;33.83;16.43;;;;;;;;;;4952157;29;20476;-76
2024/01/28 06:35:45;;;;;;;35.10;15.87;;;;;;;;;;4954697;29;20413;-76
2024/01/28 06:38:11;;;;;;;36.57;15.70;;;;;;;;;;4953897;28;21039;-75
2024/01/28 06:40:37;;;;;;;32.50;14.43;;;;;;;;;;4955896;28;20820;-76
2024/01/28 06:43:03;;;;;;;30.93;15.00;;;;;;;;;;4956336;29;20420;-76
2024/01/28 06:45:29;;;;;;;32.90;16.10;;;;;;;;;;4957868;29;20421;-77
2024/01/28 06:47:56;;;;;;;31.80;15.07;;;;;;;;;;4960296;29;20428;-76
2024/01/28 06:50:22;;;;;;;44.87;17.33;;;;;;;;;;4957025;28;20499;-76
2024/01/28 06:52:48;;;;;;;34.33;14.30;;;;;;;;;;4957925;29;21181;-76
2024/01/28 06:55:14;;;;;;;30.53;14.33;;;;;;;;;;4961268;29;20454;-76
2024/01/28 06:57:40;;;;;;;34.90;17.10;;;;;;;;;;4961146;29;20917;-76
2024/01/28 07:00:10;;;;;;;39.93;16.20;;;;;;;;;;4963160;29;20446;-76
2024/01/28 07:02:36;;;;;;;32.00;13.80;;;;;;;;;;4957584;29;20967;-77
2024/01/28 07:05:02;;;;;;;38.27;15.43;;;;;;;;;;4958153;29;20421;-77
2024/01/28 07:07:28;;;;;;;30.77;16.00;;;;;;;;;;4957699;29;20902;-77
2024/01/28 07:09:54;;;;;;;32.90;15.87;;;;;;;;;;4956346;29;20487;-77
2024/01/28 07:12:20;;;;;;;36.43;15.40;;;;;;;;;;4957168;28;20455;-77
2024/01/28 07:14:46;;;;;;;31.73;14.90;;;;;;;;;;4957664;29;20506;-77
2024/01/28 07:17:12;;;;;;;32.00;14.77;;;;;;;;;;4957193;29;20472;-77
2024/01/28 07:19:40;;;;;;;37.37;15.97;;;;;;;;;;4956323;29;20408;-77
2024/01/28 07:22:06;;;;;;;32.53;16.27;;;;;;;;;;4957595;28;20872;-77
2024/01/28 07:24:32;;;;;;;29.30;14.90;;;;;;;;;;4960172;29;20420;-77
2024/01/28 07:26:58;;;;;;;29.90;15.13;;;;;;;;;;4959693;29;20605;-77
2024/01/28 07:29:24;;;;;;;36.77;17.53;;;;;;;;;;4958184;28;20818;-77
2024/01/28 07:31:52;;;;;;;44.03;17.90;;;;;;;;;;4958035;28;20464;-77
2024/01/28 07:34:20;;;;;;;44.83;20.90;;;;;;;;;;4957980;28;20761;-77
2024/01/28 07:36:47;;;;;;;47.57;20.50;;;;;;;;;;4958436;28;20882;-77
2024/01/28 07:39:14;;;;;;;56.90;22.73;;;;;;;;;;4957013;28;20416;-77
2024/01/28 07:41:41;;;;;;;60.13;23.67;;;;;;;;;;4955598;28;20581;-77
2024/01/28 07:44:07;;;;;;;53.83;23.60;;;;;;;;;;4956430;29;20409;-76
2024/01/28 07:46:33;;;;;;;71.40;26.20;;;;;;;;;;4955048;29;20420;-77
2024/01/28 07:48:59;;;;;;;52.37;25.23;;;;;;;;;;4954765;28;20421;-77
2024/01/28 07:51:25;;;;;;;70.17;26.70;;;;;;;;;;4956620;28;20436;-77
2024/01/28 07:53:51;;;;;;;64.97;27.10;;;;;;;;;;4956973;29;20492;-77
2024/01/28 07:56:17;;;;;;;53.93;23.17;;;;;;;;;;4956679;29;20409;-76
2024/01/28 07:58:43;;;;;;;44.23;19.43;;;;;;;;;;4956274;29;20440;-77
2024/01/28 08:01:09;;;;;;;45.70;20.47;;;;;;;;;;4956392;28;20448;-76
2024/01/28 08:03:35;;;;;;;58.60;23.07;;;;;;;;;;4954899;29;20429;-76
2024/01/28 08:06:01;;;;;;;58.83;23.13;;;;;;;;;;4954706;29;20920;-77
2024/01/28 08:08:27;;;;;;;56.50;23.50;;;;;;;;;;4955952;29;20766;-77
2024/01/28 08:10:53;;;;;;;41.30;20.17;;;;;;;;;;4954707;28;20891;-78
2024/01/28 08:13:19;;;;;;;53.27;20.60;;;;;;;;;;4954535;29;20472;-78
2024/01/28 08:15:46;;;;;;;38.60;18.97;;;;;;;;;;4955858;28;20420;-78
2024/01/28 08:18:11;;;;;;;33.60;16.40;;;;;;;;;;4954296;29;20432;-78
2024/01/28 08:20:38;;;;;;;37.03;16.80;;;;;;;;;;4954342;28;20440;-77
2024/01/28 08:23:04;;;;;;;32.00;16.40;;;;;;;;;;4955606;29;20413;-77
2024/01/28 08:25:31;;;;;;;28.60;14.30;;;;;;;;;;4955684;29;20417;-78
2024/01/28 08:27:57;;;;;;;33.90;16.27;;;;;;;;;;4955489;28;20404;-78
2024/01/28 08:30:23;;;;;;;32.40;16.93;;;;;;;;;;4955527;28;20507;-78
2024/01/28 08:32:49;;;;;;;27.70;14.70;;;;;;;;;;4955340;28;20456;-79
2024/01/28 08:35:16;;;;;;;31.83;15.17;;;;;;;;;;4953881;29;20444;-79
2024/01/28 08:37:42;;;;;;;31.17;14.77;;;;;;;;;;4955433;29;20413;-79
2024/01/28 08:40:08;;;;;;;26.30;13.63;;;;;;;;;;4954069;28;20413;-79
2024/01/28 08:42:35;;;;;;;36.63;16.63;;;;;;;;;;4955495;28;20471;-78
2024/01/28 08:45:01;;;;;;;29.13;13.20;;;;;;;;;;4954199;29;20421;-78
2024/01/28 08:47:27;;;;;;;28.63;13.10;;;;;;;;;;4954238;29;20507;-79
2024/01/28 08:49:53;;;;;;;22.37;13.33;;;;;;;;;;4955242;29;20408;-79
2024/01/28 08:52:21;;;;;;;19.20;11.27;;;;;;;;;;4954245;28;20464;-79
2024/01/28 08:54:47;;;;;;;22.90;12.23;;;;;;;;;;4955414;29;20528;-79
2024/01/28 08:57:13;;;;;;;16.00;10.33;;;;;;;;;;4956474;29;20444;-79
2024/01/28 08:59:39;;;;;;;22.73;11.67;;;;;;;;;;4954531;29;20421;-79
2024/01/28 09:02:06;;;;;;;28.13;13.03;;;;;;;;;;4953917;28;20824;-79
2024/01/28 09:04:32;;;;;;;16.73;10.27;;;;;;;;;;4955970;29;20972;-79
2024/01/28 09:06:58;;;;;;;20.23;11.57;;;;;;;;;;4954480;29;20959;-78
2024/01/28 09:09:26;;;;;;;19.70;10.80;;;;;;;;;;4955247;29;20420;-79
2024/01/28 09:11:52;;;;;;;24.30;11.00;;;;;;;;;;4955239;28;20496;-78
2024/01/28 09:14:17;;;;;;;22.47;11.30;;;;;;;;;;4953840;29;20558;-78
2024/01/28 09:16:43;;;;;;;21.47;10.93;;;;;;;;;;4958920;29;20417;-78
2024/01/28 09:19:09;;;;;;;20.83;11.57;;;;;;;;;;4958774;29;20429;-77
2024/01/28 09:21:35;;;;;;;19.13;11.70;;;;;;;;;;4956147;28;20908;-77
2024/01/28 09:24:02;;;;;;;20.67;12.23;;;;;;;;;;4953509;29;20413;-77
2024/01/28 09:26:28;;;;;;;24.17;12.83;;;;;;;;;;4954382;28;20444;-79
2024/01/28 09:28:54;;;;;;;18.70;10.90;;;;;;;;;;4954707;29;20412;-77
2024/01/28 09:31:20;;;;;;;19.47;10.50;;;;;;;;;;4954487;28;20766;-77
2024/01/28 09:33:46;;;;;;;18.80;12.07;;;;;;;;;;4953154;29;20472;-77
2024/01/28 09:36:12;;;;;;;19.93;11.70;;;;;;;;;;4953095;29;20424;-77
2024/01/28 09:38:39;;;;;;;20.40;12.00;;;;;;;;;;4954436;29;20421;-78
2024/01/28 09:41:11;;;;;;;22.77;11.10;;;;;;;;;;4953960;28;20443;-79
2024/01/28 09:43:39;;;;;;;19.90;11.30;;;;;;;;;;4953076;29;20421;-79
2024/01/28 09:46:05;;;;;;;18.53;11.63;;;;;;;;;;4954064;28;20831;-78
2024/01/28 09:48:32;;;;;;;20.40;10.30;;;;;;;;;;4954699;29;20420;-78
2024/01/28 09:50:58;;;;;;;37.33;16.90;;;;;;;;;;4955237;28;20443;-78
2024/01/28 09:53:24;;;;;;;25.30;12.40;;;;;;;;;;4954638;29;20456;-78
2024/01/28 09:55:50;;;;;;;21.03;10.47;;;;;;;;;;4974019;28;20428;-83
2024/01/28 09:58:16;;;;;;;18.63;10.83;;;;;;;;;;4977706;28;20437;-84
2024/01/28 10:00:43;;;;;;;21.10;11.23;;;;;;;;;;4976600;28;20472;-79
2024/01/28 10:03:09;;;;;;;25.40;12.50;;;;;;;;;;4975908;28;20513;-78
2024/01/28 10:05:35;;;;;;;34.23;15.70;;;;;;;;;;4963216;28;20475;-79
2024/01/28 10:08:02;;;;;;;23.93;13.00;;;;;;;;;;4955054;29;20413;-82
2024/01/28 10:10:28;;;;;;;22.80;12.70;;;;;;;;;;4955629;28;20494;-79
2024/01/28 10:12:55;;;;;;;29.47;13.47;;;;;;;;;;4952756;29;20457;-79
2024/01/28 10:15:21;;;;;;;18.90;11.50;;;;;;;;;;4954213;28;20423;-80
2024/01/28 10:17:48;;;;;;;19.57;11.87;;;;;;;;;;4954291;29;20408;-81
2024/01/28 10:20:15;;;;;;;24.63;11.30;;;;;;;;;;4954153;28;20434;-79
2024/01/28 10:22:41;;;;;;;23.23;12.33;;;;;;;;;;4954491;29;20607;-79
2024/01/28 10:25:11;;;;;;;28.17;11.60;;;;;;;;;;4954242;29;20859;-79
2024/01/28 10:27:37;;;;;;;22.50;12.77;;;;;;;;;;4953631;29;20797;-79
2024/01/28 10:30:03;;;;;;;27.60;12.07;;;;;;;;;;4955272;29;20897;-79
2024/01/28 10:32:29;;;;;;;19.80;11.77;;;;;;;;;;4954877;28;20843;-79
2024/01/28 10:34:55;;;;;;;34.23;14.10;;;;;;;;;;4953821;29;20425;-79
2024/01/28 10:37:22;;;;;;;40.50;18.13;;;;;;;;;;4954393;29;20408;-79
2024/01/28 10:39:48;;;;;;;22.87;12.50;;;;;;;;;;4955069;29;20992;-81
2024/01/28 10:42:18;;;;;;;18.53;10.20;;;;;;;;;;4955129;28;20468;-80
2024/01/28 10:44:47;;;;;;;33.53;15.33;;;;;;;;;;4954329;29;20437;-81
2024/01/28 10:47:13;;;;;;;37.73;14.97;;;;;;;;;;4953361;29;20520;-79
2024/01/28 10:49:40;;;;;;;21.80;12.37;;;;;;;;;;4954966;29;20409;-79
2024/01/28 10:52:08;;;;;;;24.27;10.97;;;;;;;;;;4953119;28;20471;-79
2024/01/28 10:54:34;;;;;;;18.97;10.80;;;;;;;;;;4952822;29;20592;-82
2024/01/28 10:57:00;;;;;;;17.10;9.93;;;;;;;;;;4952328;29;20523;-80
2024/01/28 10:59:27;;;;;;;17.60;9.37;;;;;;;;;;4951935;29;20447;-80
2024/01/28 11:01:53;;;;;;;16.07;9.70;;;;;;;;;;4952184;28;20459;-79
2024/01/28 11:04:19;;;;;;;19.13;9.67;;;;;;;;;;4951550;29;20904;-79
2024/01/28 11:06:46;;;;;;;20.63;10.07;;;;;;;;;;4952607;29;20519;-79
2024/01/28 11:09:12;;;;;;;17.63;9.50;;;;;;;;;;4953303;29;20470;-82
2024/01/28 11:11:38;;;;;;;26.73;10.90;;;;;;;;;;4952895;28;20466;-79
2024/01/28 11:14:07;;;;;;;16.83;10.67;;;;;;;;;;4952469;29;20421;-79
2024/01/28 11:16:33;;;;;;;14.93;8.63;;;;;;;;;;4953516;29;20432;-79
2024/01/28 11:19:05;;;;;;;15.30;9.10;;;;;;;;;;4953637;29;20503;-79
2024/01/28 11:21:33;;;;;;;15.53;7.73;;;;;;;;;;4952423;28;20432;-79
2024/01/28 11:23:59;;;;;;;12.37;8.47;;;;;;;;;;4954138;28;20908;-80
2024/01/28 11:26:28;;;;;;;10.73;6.47;;;;;;;;;;4956184;29;20420;-79
2024/01/28 11:28:55;;;;;;;13.90;8.10;;;;;;;;;;4956294;28;20817;-77
2024/01/28 11:31:34;;;;;;;17.10;7.70;;;;;;;;;;4956136;28;20464;-77
2024/01/28 11:34:13;;;;;;;13.77;8.03;;;;;;;;;;4955358;29;21135;-80
2024/01/28 11:36:42;;;;;;;14.43;7.20;;;;;;;;;;4960601;29;20416;-79
2024/01/28 11:39:11;;;;;;;10.53;7.00;;;;;;;;;;4958548;29;20405;-78
2024/01/28 11:41:38;;;;;;;13.00;7.17;;;;;;;;;;4956048;28;20962;-78
2024/01/28 11:44:07;;;;;;;11.87;6.00;;;;;;;;;;4955959;29;20405;-78
2024/01/28 11:46:34;;;;;;;10.33;7.50;;;;;;;;;;4954372;29;20417;-78
2024/01/28 11:49:00;;;;;;;11.60;7.07;;;;;;;;;;4955006;29;20429;-78
2024/01/28 11:51:31;;;;;;;15.97;7.47;;;;;;;;;;4956845;28;20774;-79
2024/01/28 11:53:59;;;;;;;16.50;7.10;;;;;;;;;;4955152;29;20468;-79
2024/01/28 11:56:25;;;;;;;15.67;7.40;;;;;;;;;;4957203;28;20427;-79
2024/01/28 11:58:51;;;;;;;11.70;7.33;;;;;;;;;;4956554;29;20424;-79
2024/01/28 12:01:17;;;;;;;17.43;8.50;;;;;;;;;;4957265;28;20449;-79
2024/01/28 12:03:43;;;;;;;15.07;7.63;;;;;;;;;;4957673;29;20936;-80
2024/01/28 12:06:09;;;;;;;13.50;7.93;;;;;;;;;;4955158;29;20424;-72
2024/01/28 12:08:39;;;;;;;11.20;7.73;;;;;;;;;;4955320;29;20428;-72
2024/01/28 12:11:06;;;;;;;15.73;7.93;;;;;;;;;;4955515;28;20428;-72
2024/01/28 12:13:32;;;;;;;13.60;6.63;;;;;;;;;;4955222;29;20954;-72
2024/01/28 12:15:59;;;;;;;11.47;6.13;;;;;;;;;;4955930;29;20472;-75
2024/01/28 12:18:32;;;;;;;9.30;6.40;;;;;;;;;;4955868;29;20412;-73
2024/01/28 12:20:59;;;;;;;11.90;7.07;;;;;;;;;;4955477;28;20649;-73
2024/01/28 12:23:25;;;;;;;9.77;6.03;;;;;;;;;;4955482;28;20484;-75
2024/01/28 12:25:51;;;;;;;7.40;5.23;;;;;;;;;;4955568;29;20451;-77
2024/01/28 12:28:17;;;;;;;9.07;5.63;;;;;;;;;;4955044;29;20447;-74
2024/01/28 12:30:43;;;;;;;8.47;5.13;;;;;;;;;;4955070;28;20429;-73
2024/01/28 12:33:10;;;;;;;5.60;4.20;;;;;;;;;;4955376;29;20490;-76
2024/01/28 12:35:36;;;;;;;9.40;5.93;;;;;;;;;;4955141;28;20444;-73
2024/01/28 12:38:02;;;;;;;6.53;5.33;;;;;;;;;;4957255;29;20437;-71
2024/01/28 12:40:27;;;;;;;8.10;5.70;;;;;;;;;;4957950;28;20420;-73
2024/01/28 12:42:53;;;;;;;9.27;5.00;;;;;;;;;;4957931;29;20824;-73
2024/01/28 12:45:21;;;;;;;8.53;4.90;;;;;;;;;;4955605;29;20417;-72
2024/01/28 12:47:47;;;;;;;6.77;4.77;;;;;;;;;;4961265;28;20496;-83
2024/01/28 12:50:13;;;;;;;9.90;4.40;;;;;;;;;;4960061;28;20421;-83
2024/01/28 12:52:39;;;;;;;9.10;5.23;;;;;;;;;;4961068;29;20464;-83
2024/01/28 12:55:05;;;;;;;10.53;5.67;;;;;;;;;;4964013;29;20416;-83
2024/01/28 12:57:31;;;;;;;8.30;5.10;;;;;;;;;;4964180;29;20416;-82
2024/01/28 12:59:58;;;;;;;11.00;4.43;;;;;;;;;;4962976;29;20455;-83
2024/01/28 13:02:24;;;;;;;11.27;5.47;;;;;;;;;;4962864;28;20468;-83
2024/01/28 13:04:50;;;;;;;6.50;4.60;;;;;;;;;;4960929;29;20495;-82
2024/01/28 13:07:16;;;;;;;10.10;4.37;;;;;;;;;;4960577;29;20525;-82
2024/01/28 13:09:42;;;;;;;9.37;4.67;;;;;;;;;;4961100;29;20540;-82
2024/01/28 13:12:08;;;;;;;5.87;3.93;;;;;;;;;;4961270;28;20468;-83
2024/01/28 13:14:34;;;;;;;5.50;4.23;;;;;;;;;;4959498;29;20424;-82
2024/01/28 13:17:00;;;;;;;7.40;3.60;;;;;;;;;;4956955;29;20424;-83
2024/01/28 13:19:26;;;;;;;7.80;4.00;;;;;;;;;;4957158;29;20824;-83
2024/01/28 13:21:52;;;;;;;12.77;3.87;;;;;;;;;;4958369;28;20429;-82
2024/01/28 13:24:18;;;;;;;5.07;3.80;;;;;;;;;;4958866;29;20424;-82
2024/01/28 13:26:44;;;;;;;4.73;3.33;;;;;;;;;;4958316;29;20455;-82
2024/01/28 13:29:10;;;;;;;4.90;3.63;;;;;;;;;;4957895;29;20463;-83
2024/01/28 13:31:36;;;;;;;8.63;4.10;;;;;;;;;;4960825;28;20559;-83
2024/01/28 13:34:02;;;;;;;11.63;4.10;;;;;;;;;;4958983;29;20465;-82
2024/01/28 13:36:28;;;;;;;6.10;4.00;;;;;;;;;;4960280;29;20787;-85
2024/01/28 13:38:54;;;;;;;7.53;3.50;;;;;;;;;;4959914;29;20479;-85
2024/01/28 13:41:20;;;;;;;6.40;3.53;;;;;;;;;;4973276;28;20436;-85
2024/01/28 13:43:46;;;;;;;7.93;4.40;;;;;;;;;;4968387;29;20424;-85
2024/01/28 13:46:12;;;;;;;7.33;4.00;;;;;;;;;;4959015;29;20516;-85
2024/01/28 13:48:38;;;;;;;7.67;3.53;;;;;;;;;;4961731;28;20412;-85
2024/01/28 13:51:04;;;;;;;10.93;3.77;;;;;;;;;;4962047;28;20468;-85
2024/01/28 13:53:30;;;;;;;6.40;3.93;;;;;;;;;;4960123;29;20469;-83
2024/01/28 13:55:56;;;;;;;6.57;4.20;;;;;;;;;;4958879;29;20983;-83
2024/01/28 13:58:22;;;;;;;5.90;3.73;;;;;;;;;;4958312;29;20421;-83
2024/01/28 14:00:48;;;;;;;5.00;3.53;;;;;;;;;;4958964;28;20468;-83
2024/01/28 14:03:14;;;;;;;5.93;3.90;;;;;;;;;;4959875;28;20431;-82
2024/01/28 14:05:41;;;;;;;6.30;3.30;;;;;;;;;;4959628;29;20455;-83
2024/01/28 14:08:08;;;;;;;8.67;4.03;;;;;;;;;;4958402;29;20425;-82
2024/01/28 14:10:34;;;;;;;8.80;4.40;;;;;;;;;;4959169;28;20463;-83
2024/01/28 14:13:00;;;;;;;4.97;3.43;;;;;;;;;;4976626;28;20468;-82
2024/01/28 14:15:26;;;;;;;8.83;3.10;;;;;;;;;;4977052;28;20500;-82
2024/01/28 14:17:52;;;;;;;4.90;3.70;;;;;;;;;;4976767;28;20432;-82
2024/01/28 14:20:18;;;;;;;5.30;2.90;;;;;;;;;;4975886;28;20429;-83
2024/01/28 14:22:44;;;;;;;5.13;3.30;;;;;;;;;;4977125;28;20421;-83
2024/01/28 14:25:09;;;;;;;4.90;3.30;;;;;;;;;;4976434;28;20421;-82
2024/01/28 14:27:35;;;;;;;5.73;3.73;;;;;;;;;;4970541;29;20452;-85
2024/01/28 14:30:01;;;;;;;7.57;4.17;;;;;;;;;;4959373;29;20772;-82
2024/01/28 14:32:27;;;;;;;10.27;5.23;;;;;;;;;;4959465;28;20472;-82
2024/01/28 14:34:53;;;;;;;6.50;4.27;;;;;;;;;;4975350;28;20441;-82
2024/01/28 14:37:19;;;;;;;7.10;5.17;;;;;;;;;;4968390;29;20433;-82
2024/01/28 14:39:46;;;;;;;8.97;5.47;;;;;;;;;;4975642;29;20467;-82
2024/01/28 14:42:12;;;;;;;11.60;5.30;;;;;;;;;;4973278;28;20432;-82
2024/01/28 14:44:39;;;;;;;12.50;5.77;;;;;;;;;;4959724;28;20413;-84
2024/01/28 14:47:05;;;;;;;10.37;5.97;;;;;;;;;;4959095;29;20438;-83
2024/01/28 14:49:31;;;;;;;8.63;4.80;;;;;;;;;;4959256;29;20736;-83
2024/01/28 14:51:58;;;;;;;14.17;7.23;;;;;;;;;;4960286;28;21107;-83
2024/01/28 14:54:24;;;;;;;8.80;5.30;;;;;;;;;;4957533;29;20421;-83
2024/01/28 14:56:51;;;;;;;6.90;4.40;;;;;;;;;;4958531;29;20483;-83
2024/01/28 14:59:17;;;;;;;5.97;4.60;;;;;;;;;;4960975;28;20414;-83
2024/01/28 15:01:43;;;;;;;7.47;4.80;;;;;;;;;;4961743;28;20452;-83
2024/01/28 15:04:09;;;;;;;7.53;5.13;;;;;;;;;;4962570;29;20496;-83
2024/01/28 15:06:35;;;;;;;9.10;5.03;;;;;;;;;;4962107;29;20408;-83
2024/01/28 15:09:02;;;;;;;7.97;5.07;;;;;;;;;;4961270;29;20499;-83
2024/01/28 15:11:28;;;;;;;11.00;5.37;;;;;;;;;;4962004;28;20487;-83
2024/01/28 15:13:54;;;;;;;9.77;5.20;;;;;;;;;;4961863;29;20580;-82
2024/01/28 15:16:20;;;;;;;9.73;5.70;;;;;;;;;;4962320;29;20870;-83
2024/01/28 15:18:46;;;;;;;9.50;5.90;;;;;;;;;;4961643;29;20421;-82
2024/01/28 15:21:12;;;;;;;9.93;5.17;;;;;;;;;;4961982;28;20549;-83
2024/01/28 15:23:38;;;;;;;6.93;5.20;;;;;;;;;;4961685;29;20928;-83
2024/01/28 15:26:05;;;;;;;7.90;4.63;;;;;;;;;;4961911;29;20499;-83
2024/01/28 15:28:31;;;;;;;9.33;5.57;;;;;;;;;;4961364;29;20866;-83
2024/01/28 15:30:57;;;;;;;10.87;5.73;;;;;;;;;;4961152;28;20453;-83
2024/01/28 15:33:23;;;;;;;12.00;5.30;;;;;;;;;;4965156;29;20567;-83
2024/01/28 15:35:49;;;;;;;8.80;5.30;;;;;;;;;;4968228;29;20438;-83
2024/01/28 15:38:16;;;;;;;8.47;5.33;;;;;;;;;;4969062;29;20784;-83
2024/01/28 15:40:43;;;;;;;8.53;5.53;;;;;;;;;;4966554;28;20749;-83
2024/01/28 15:43:09;;;;;;;13.03;5.80;;;;;;;;;;4965961;29;20424;-83
2024/01/28 15:45:34;;;;;;;11.67;5.87;;;;;;;;;;4964035;29;20425;-79
2024/01/28 15:48:01;;;;;;;7.07;4.90;;;;;;;;;;4972787;29;20427;-80
2024/01/28 15:50:27;;;;;;;9.50;5.20;;;;;;;;;;4960130;28;20451;-71
2024/01/28 15:52:53;;;;;;;13.80;5.40;;;;;;;;;;4956371;29;20460;-72
2024/01/28 15:55:19;;;;;;;8.23;5.60;;;;;;;;;;4956659;29;20524;-71
2024/01/28 15:57:45;;;;;;;9.23;5.30;;;;;;;;;;4966740;29;20432;-71
2024/01/28 16:00:12;;;;;;;12.70;5.53;;;;;;;;;;4976346;28;20420;-71
2024/01/28 16:02:38;;;;;;;11.00;5.70;;;;;;;;;;4966921;28;20413;-71
2024/01/28 16:05:04;;;;;;;8.57;5.70;;;;;;;;;;4956319;29;20463;-71
2024/01/28 16:07:30;;;;;;;10.33;5.50;;;;;;;;;;4956095;29;20765;-71
2024/01/28 16:09:56;;;;;;;7.53;5.17;;;;;;;;;;4955815;28;20515;-71
2024/01/28 16:12:22;;;;;;;12.87;6.40;;;;;;;;;;4953715;28;20884;-71
2024/01/28 16:14:48;;;;;;;7.50;5.57;;;;;;;;;;4955641;29;20444;-71
2024/01/28 16:17:18;;;;;;;8.90;5.50;;;;;;;;;;4956121;29;20908;-71
2024/01/28 16:19:44;;;;;;;12.70;7.20;;;;;;;;;;4955406;28;20419;-71
2024/01/28 16:22:10;;;;;;;10.23;6.77;;;;;;;;;;4954227;28;20850;-71
2024/01/28 16:24:36;;;;;;;11.90;6.57;;;;;;;;;;4955389;29;20484;-72
2024/01/28 16:27:02;;;;;;;12.83;6.80;;;;;;;;;;4955647;29;20784;-71
2024/01/28 16:29:28;;;;;;;14.83;6.40;;;;;;;;;;4955517;29;20503;-72
2024/01/28 16:31:54;;;;;;;12.83;7.10;;;;;;;;;;4955376;28;20468;-71
2024/01/28 16:34:20;;;;;;;16.03;7.17;;;;;;;;;;4955334;29;20425;-71
2024/01/28 16:36:46;;;;;;;12.90;6.40;;;;;;;;;;4955517;29;20512;-71
2024/01/28 16:39:12;;;;;;;27.83;11.90;;;;;;;;;;4955512;29;20417;-71
2024/01/28 16:41:38;;;;;;;21.77;10.50;;;;;;;;;;4955262;28;20433;-72
2024/01/28 16:44:04;;;;;;;30.07;11.50;;;;;;;;;;4955169;29;20503;-71
2024/01/28 16:46:32;;;;;;;17.17;9.50;;;;;;;;;;4955174;29;20785;-71
2024/01/28 16:48:58;;;;;;;19.27;9.20;;;;;;;;;;4954914;28;20413;-71
2024/01/28 16:51:23;;;;;;;13.60;8.77;;;;;;;;;;4955009;28;20583;-73
2024/01/28 16:53:49;;;;;;;17.80;9.23;;;;;;;;;;4954904;29;20495;-79
2024/01/28 16:56:16;;;;;;;16.10;7.70;;;;;;;;;;4956020;28;20420;-79
2024/01/28 16:58:42;;;;;;;13.83;7.40;;;;;;;;;;4956204;29;20944;-81
2024/01/28 17:01:09;;;;;;;16.03;9.47;;;;;;;;;;4954397;29;20444;-79
2024/01/28 17:03:35;;;;;;;13.60;8.67;;;;;;;;;;4955761;29;20433;-78
2024/01/28 17:06:01;;;;;;;15.03;7.53;;;;;;;;;;4955242;28;20432;-78
2024/01/28 17:08:27;;;;;;;15.10;7.57;;;;;;;;;;4953912;29;20428;-78
2024/01/28 17:10:54;;;;;;;16.10;7.73;;;;;;;;;;4955735;28;20515;-79
2024/01/28 17:13:20;;;;;;;16.70;8.77;;;;;;;;;;4954835;29;20499;-82
2024/01/28 17:15:46;;;;;;;14.07;7.57;;;;;;;;;;4955887;28;20417;-74
2024/01/28 17:18:13;;;;;;;14.20;7.50;;;;;;;;;;4952671;29;20460;-72
2024/01/28 17:20:40;;;;;;;18.50;9.53;;;;;;;;;;4940031;29;20453;-79
2024/01/28 17:23:06;;;;;;;20.83;10.47;;;;;;;;;;4954125;28;20467;-77
2024/01/28 17:25:32;;;;;;;18.67;8.07;;;;;;;;;;4953654;29;20424;-79
2024/01/28 17:27:59;;;;;;;17.63;7.60;;;;;;;;;;4954710;29;20413;-79
2024/01/28 17:30:26;;;;;;;12.07;7.63;;;;;;;;;;4953324;28;20503;-77
2024/01/28 17:32:52;;;;;;;20.07;9.10;;;;;;;;;;4954532;28;20463;-77
2024/01/28 17:35:18;;;;;;;17.87;8.00;;;;;;;;;;4954612;29;20421;-77
2024/01/28 17:37:44;;;;;;;17.40;7.60;;;;;;;;;;4954219;29;20484;-76
2024/01/28 17:40:10;;;;;;;13.40;8.03;;;;;;;;;;4953570;28;20560;-79
2024/01/28 17:42:36;;;;;;;15.77;7.23;;;;;;;;;;4953939;29;20428;-72
2024/01/28 17:45:04;;;;;;;13.27;7.27;;;;;;;;;;4954851;29;20428;-78
2024/01/28 17:47:30;;;;;;;15.33;8.50;;;;;;;;;;4954562;29;20823;-78
2024/01/28 17:49:56;;;;;;;11.50;6.87;;;;;;;;;;4954651;28;20420;-78
2024/01/28 17:52:22;;;;;;;13.30;6.57;;;;;;;;;;4954512;28;20467;-77
2024/01/28 17:54:48;;;;;;;12.00;6.40;;;;;;;;;;4954693;29;20413;-76
2024/01/28 17:57:14;;;;;;;13.77;6.90;;;;;;;;;;4954910;29;20781;-78
2024/01/28 17:59:40;;;;;;;22.80;10.83;;;;;;;;;;4966913;29;20464;-78
2024/01/28 18:02:06;;;;;;;23.80;10.43;;;;;;;;;;4976148;28;20472;-85
2024/01/28 18:04:32;;;;;;;26.00;12.50;;;;;;;;;;4976262;28;20425;-79
2024/01/28 18:06:58;;;;;;;27.97;12.90;;;;;;;;;;4959721;29;20425;-78
2024/01/28 18:09:24;;;;;;;19.30;10.10;;;;;;;;;;4953317;29;20428;-76
2024/01/28 18:11:51;;;;;;;20.13;9.70;;;;;;;;;;4954448;28;20437;-76
2024/01/28 18:14:16;;;;;;;20.70;10.60;;;;;;;;;;4954443;28;20470;-76
2024/01/28 18:16:42;;;;;;;22.93;9.73;;;;;;;;;;4956602;29;20500;-79
2024/01/28 18:19:08;;;;;;;25.77;10.70;;;;;;;;;;4956749;29;20412;-79
2024/01/28 18:21:34;;;;;;;24.07;10.20;;;;;;;;;;4956876;28;20432;-79
2024/01/28 18:24:02;;;;;;;13.40;7.50;;;;;;;;;;4956047;29;20417;-79
2024/01/28 18:26:28;;;;;;;16.33;6.63;;;;;;;;;;4956759;29;20419;-79
2024/01/28 18:28:54;;;;;;;11.00;6.10;;;;;;;;;;4958275;28;20421;-79
2024/01/28 18:31:20;;;;;;;15.53;7.07;;;;;;;;;;4957554;28;20960;-79
2024/01/28 18:33:46;;;;;;;13.70;7.50;;;;;;;;;;4958899;28;20466;-79
2024/01/28 18:36:12;;;;;;;11.73;6.77;;;;;;;;;;4962924;29;20412;-80
2024/01/28 18:38:38;;;;;;;12.57;6.93;;;;;;;;;;4963751;29;20415;-80
2024/01/28 18:41:08;;;;;;;19.23;8.30;;;;;;;;;;4963857;28;20531;-80
2024/01/28 18:43:34;;;;;;;15.53;7.90;;;;;;;;;;4962291;29;20843;-80
2024/01/28 18:46:00;;;;;;;17.90;7.60;;;;;;;;;;4963387;29;20447;-80
2024/01/28 18:48:26;;;;;;;13.17;7.77;;;;;;;;;;4962393;29;20480;-80
2024/01/28 18:50:52;;;;;;;11.43;7.40;;;;;;;;;;4962317;28;20815;-80
2024/01/28 18:53:18;;;;;;;17.27;7.80;;;;;;;;;;4962137;29;20460;-80
2024/01/28 18:55:44;;;;;;;12.27;7.13;;;;;;;;;;4966417;29;20421;-79
2024/01/28 18:58:12;;;;;;;15.43;7.47;;;;;;;;;;4971424;29;20443;-80
2024/01/28 19:00:41;;;;;;;15.87;7.37;;;;;;;;;;4968409;28;20550;-80
2024/01/28 19:03:07;;;;;;;13.00;7.03;;;;;;;;;;4960983;28;20424;-80
2024/01/28 19:05:36;;;;;;;20.93;8.43;;;;;;;;;;4960015;29;20432;-79
2024/01/28 19:08:02;;;;;;;16.50;9.23;;;;;;;;;;4960766;29;20959;-80
2024/01/28 19:10:27;;;;;;;15.60;8.47;;;;;;;;;;4961957;28;20424;-78
2024/01/28 19:12:53;;;;;;;14.73;7.57;;;;;;;;;;4960922;29;20472;-78
2024/01/28 19:15:19;;;;;;;18.27;8.13;;;;;;;;;;4960248;29;20967;-79
2024/01/28 19:17:45;;;;;;;21.43;9.87;;;;;;;;;;4959179;29;20420;-79
2024/01/28 19:20:15;;;;;;;20.10;7.93;;;;;;;;;;4957600;28;20417;-79
2024/01/28 19:22:41;;;;;;;13.40;8.70;;;;;;;;;;4957970;29;20436;-79
2024/01/28 19:25:07;;;;;;;15.20;7.40;;;;;;;;;;4958424;29;20420;-79
2024/01/28 19:27:33;;;;;;;13.80;7.00;;;;;;;;;;4960337;29;20420;-79
2024/01/28 19:29:59;;;;;;;15.83;7.70;;;;;;;;;;4961228;29;20770;-79
2024/01/28 19:32:25;;;;;;;14.70;7.50;;;;;;;;;;4958929;28;20499;-78
2024/01/28 19:34:51;;;;;;;11.77;7.27;;;;;;;;;;4959701;29;20831;-79
2024/01/28 19:37:17;;;;;;;13.80;7.43;;;;;;;;;;4959740;29;20737;-79
2024/01/28 19:39:43;;;;;;;14.60;7.20;;;;;;;;;;4960565;29;20472;-79
2024/01/28 19:42:09;;;;;;;18.73;7.40;;;;;;;;;;4960832;28;20792;-78
2024/01/28 19:44:35;;;;;;;17.23;7.73;;;;;;;;;;4960538;28;20413;-79
2024/01/28 19:47:01;;;;;;;17.60;7.50;;;;;;;;;;4960741;29;20532;-79
2024/01/28 19:49:28;;;;;;;18.50;11.13;;;;;;;;;;4961860;29;20417;-79
2024/01/28 19:51:54;;;;;;;14.13;8.30;;;;;;;;;;4960384;28;20429;-79
2024/01/28 19:54:20;;;;;;;17.13;7.90;;;;;;;;;;4959029;29;20808;-79
2024/01/28 19:56:47;;;;;;;14.73;7.50;;;;;;;;;;4964984;29;20443;-79
2024/01/28 19:59:13;;;;;;;12.37;7.47;;;;;;;;;;4970259;29;20500;-79
2024/01/28 20:01:39;;;;;;;13.70;7.43;;;;;;;;;;4959018;28;20492;-78
2024/01/28 20:04:05;;;;;;;11.13;6.83;;;;;;;;;;4957971;29;20460;-79
2024/01/28 20:06:31;;;;;;;16.50;8.00;;;;;;;;;;4958714;29;20436;-79
2024/01/28 20:08:57;;;;;;;10.43;6.60;;;;;;;;;;4958431;29;20421;-79
2024/01/28 20:11:23;;;;;;;16.90;8.57;;;;;;;;;;4959378;28;20591;-79
2024/01/28 20:13:49;;;;;;;12.80;7.93;;;;;;;;;;4957243;29;20499;-79
2024/01/28 20:16:15;;;;;;;13.70;8.23;;;;;;;;;;4958247;28;20842;-79
2024/01/28 20:18:41;;;;;;;15.90;7.80;;;;;;;;;;4957324;29;20436;-79
2024/01/28 20:21:07;;;;;;;18.23;8.17;;;;;;;;;;4956950;28;20484;-79
2024/01/28 20:23:35;;;;;;;14.43;7.50;;;;;;;;;;4957158;29;20476;-79